This is the latest recevied weather packets stored in our database for station/object OM0AGP-15. If no packets are shown the sender has not sent any weather packets the latest 10 day(s).
| Time | Temp. | Humidity | Pressure | Rain* | Wind** | Luminosity | Snow |
|---|---|---|---|---|---|---|---|
| 1777346158 | -0.56° C | 63% | 1019.9 hPa | - | - | - | - |
| 1777345258 | -0.56° C | 62% | 1020 hPa | - | - | - | - |
| 1777344358 | -0.56° C | 64% | 1019.9 hPa | - | - | - | - |
| 1777343458 | -0.56° C | 64% | 1020 hPa | - | - | - | - |
| 1777342558 | -0.56° C | 63% | 1019.9 hPa | - | - | - | - |
| 1777341658 | -0.56° C | 63% | 1020 hPa | - | - | - | - |
| 1777340758 | -0.56° C | 61% | 1020.2 hPa | - | - | - | - |
| 1777339858 | 0° C | 60% | 1020.2 hPa | - | - | - | - |
| 1777338958 | 0° C | 60% | 1020.2 hPa | - | - | - | - |
| 1777338058 | 0° C | 60% | 1020.3 hPa | - | - | - | - |
| 1777337158 | 0.56° C | 59% | 1020.2 hPa | - | - | - | - |
| 1777336257 | 0.56° C | 59% | 1020.2 hPa | - | - | - | - |
| 1777335357 | 0° C | 61% | 1020.3 hPa | - | - | - | - |
| 1777334457 | 0° C | 61% | 1020.2 hPa | - | - | - | - |
| 1777333557 | 0.56° C | 60% | 1020.2 hPa | - | - | - | - |
| 1777332657 | 0.56° C | 59% | 1020.1 hPa | - | - | - | - |
| 1777331757 | 1.11° C | 58% | 1020.2 hPa | - | - | - | - |
| 1777330857 | 1.11° C | 57% | 1020.2 hPa | - | - | - | - |
| 1777329957 | 1.67° C | 56% | 1020.1 hPa | - | - | - | - |
| 1777329057 | 2.22° C | 56% | 1020.1 hPa | - | - | - | - |
| 1777328157 | 2.22° C | 56% | 1020 hPa | - | - | - | - |
| 1777327257 | 2.78° C | 54% | 1020 hPa | - | - | - | - |
| 1777326357 | 3.33° C | 50% | 1019.8 hPa | - | - | - | - |
| 1777325457 | 2.78° C | 55% | 1019.8 hPa | - | - | - | - |
| 1777324557 | 2.78° C | 55% | 1019.7 hPa | - | - | - | - |
* Rain since midnight (hover to see other rain measurements)
** Current wind speed in m/s (hover to see current wind gust speed)